createdAt,value
2023-04-30T00:00:25.812Z,91.14
2023-04-30T00:02:52.387Z,91.62
2023-04-30T00:05:19.138Z,91.99
2023-04-30T00:07:45.626Z,93.65
2023-04-30T00:10:12.291Z,93.20
2023-04-30T00:12:38.971Z,92.14
2023-04-30T00:15:06.046Z,92.85
2023-04-30T00:17:32.590Z,92.97
2023-04-30T00:19:59.055Z,93.49
2023-04-30T00:22:25.604Z,92.95
2023-04-30T00:24:52.276Z,91.62
2023-04-30T00:27:18.770Z,91.80
2023-04-30T00:29:45.407Z,90.94
2023-04-30T00:32:11.917Z,91.52
2023-04-30T00:34:38.462Z,90.75
2023-04-30T00:37:04.969Z,90.55
2023-04-30T00:39:31.402Z,90.74
2023-04-30T00:41:58.030Z,90.49
2023-04-30T00:44:24.565Z,90.35
2023-04-30T00:46:51.082Z,91.68
2023-04-30T00:49:17.768Z,91.54
2023-04-30T00:51:45.663Z,91.84
2023-04-30T00:54:12.746Z,92.68
2023-04-30T00:56:39.303Z,92.80
2023-04-30T00:59:05.928Z,94.13
2023-04-30T01:01:32.927Z,93.88
2023-04-30T01:04:01.063Z,94.11
2023-04-30T01:06:28.310Z,93.30
2023-04-30T01:08:55.133Z,93.75
2023-04-30T01:11:26.407Z,94.88
2023-04-30T01:14:03.825Z,95.57
2023-04-30T01:16:36.427Z,94.33
2023-04-30T01:19:11.837Z,94.95
2023-04-30T01:21:42.224Z,95.23
2023-04-30T01:24:30.356Z,96.84
2023-04-30T01:27:08.350Z,98.02
2023-04-30T01:29:36.655Z,98.29
2023-04-30T01:32:03.708Z,98.30
2023-04-30T01:34:30.229Z,97.99
2023-04-30T01:37:05.550Z,98.85
2023-04-30T01:40:08.637Z,97.20
2023-04-30T01:43:06.192Z,97.06
2023-04-30T01:45:32.640Z,97.14
2023-04-30T01:48:14.080Z,97.02
2023-04-30T01:50:48.508Z,95.66
2023-04-30T01:53:21.829Z,97.18
2023-04-30T01:55:48.176Z,96.17
2023-04-30T01:58:16.624Z,96.06
2023-04-30T02:00:43.196Z,95.14
2023-04-30T02:03:09.812Z,95.48
2023-04-30T02:05:36.379Z,96.30
2023-04-30T02:08:03.372Z,96.62
2023-04-30T02:10:30.649Z,95.46
2023-04-30T02:12:57.193Z,96.63
2023-04-30T02:15:23.895Z,96.74
2023-04-30T02:17:50.695Z,97.13
2023-04-30T02:20:17.268Z,95.96
2023-04-30T02:22:43.817Z,96.48
2023-04-30T02:25:12.379Z,96.13
2023-04-30T02:27:38.987Z,95.52
2023-04-30T02:30:06.494Z,96.11
2023-04-30T02:32:33.208Z,96.87
2023-04-30T02:34:59.795Z,97.68
2023-04-30T02:37:26.342Z,98.39
2023-04-30T02:39:54.627Z,98.56
2023-04-30T02:42:21.296Z,99.18
2023-04-30T02:44:47.795Z,98.49
2023-04-30T02:47:14.252Z,97.75
2023-04-30T02:49:40.824Z,96.57
2023-04-30T02:52:09.597Z,96.25
2023-04-30T02:54:36.637Z,96.75
2023-04-30T02:57:03.421Z,96.68
2023-04-30T02:59:29.967Z,97.41
2023-04-30T03:01:56.489Z,96.65
2023-04-30T03:04:22.970Z,96.98
2023-04-30T03:06:50.764Z,97.12
2023-04-30T03:09:20.079Z,98.20
2023-04-30T03:11:46.842Z,98.91
2023-04-30T03:14:13.340Z,97.14
2023-04-30T03:16:39.909Z,97.41
2023-04-30T03:19:06.581Z,98.91
2023-04-30T03:21:33.164Z,98.45
2023-04-30T03:23:59.700Z,98.13
2023-04-30T03:26:26.238Z,98.31
2023-04-30T03:28:53.016Z,98.92
2023-04-30T03:31:19.531Z,99.66
2023-04-30T03:33:46.077Z,99.49
2023-04-30T03:36:13.218Z,99.32
2023-04-30T03:38:41.782Z,98.56
2023-04-30T03:41:08.344Z,99.60
2023-04-30T03:43:34.773Z,100.00
2023-04-30T03:46:01.307Z,100.00
2023-04-30T03:48:27.818Z,100.00
2023-04-30T03:50:54.272Z,100.00
2023-04-30T03:53:20.694Z,100.00
2023-04-30T03:55:49.299Z,100.00
2023-04-30T03:58:15.860Z,100.00
2023-04-30T04:00:42.490Z,100.00
2023-04-30T04:03:09.017Z,100.00
2023-04-30T04:05:35.539Z,100.00
2023-04-30T04:08:02.067Z,100.00
2023-04-30T04:10:28.896Z,100.00
2023-04-30T04:12:55.498Z,100.00
2023-04-30T04:15:22.049Z,100.00
2023-04-30T04:17:48.711Z,100.00
2023-04-30T04:20:15.327Z,100.00
2023-04-30T04:22:41.804Z,100.00
2023-04-30T04:25:08.764Z,100.00
2023-04-30T04:27:35.495Z,100.00
2023-04-30T04:30:05.481Z,100.00
2023-04-30T04:32:32.770Z,100.00
2023-04-30T04:34:59.345Z,100.00
2023-04-30T04:37:25.807Z,100.00
2023-04-30T04:39:52.768Z,100.00
2023-04-30T04:42:20.528Z,100.00
2023-04-30T04:44:47.066Z,100.00
2023-04-30T04:47:13.548Z,100.00
2023-04-30T04:49:39.962Z,100.00
2023-04-30T04:52:06.607Z,100.00
2023-04-30T04:54:33.462Z,100.00
2023-04-30T04:56:59.909Z,100.00
2023-04-30T04:59:26.689Z,100.00
2023-04-30T05:01:53.253Z,100.00
2023-04-30T05:04:19.808Z,100.00
2023-04-30T05:06:46.892Z,100.00
2023-04-30T05:09:13.477Z,100.00
2023-04-30T05:11:41.566Z,100.00
2023-04-30T05:14:08.184Z,99.25
2023-04-30T05:16:34.716Z,99.28
2023-04-30T05:19:01.256Z,99.96
2023-04-30T05:21:29.793Z,99.44
2023-04-30T05:23:56.342Z,100.00
2023-04-30T05:26:24.343Z,99.56
2023-04-30T05:28:52.331Z,99.55
2023-04-30T05:31:20.808Z,99.17
2023-04-30T05:33:47.666Z,97.40
2023-04-30T05:36:14.608Z,99.63
2023-04-30T05:38:41.402Z,100.00
2023-04-30T05:41:08.085Z,100.00
2023-04-30T05:43:34.693Z,100.00
2023-04-30T05:46:01.252Z,100.00
2023-04-30T05:48:27.796Z,99.45
2023-04-30T05:50:54.367Z,100.00
2023-04-30T05:53:20.825Z,98.51
2023-04-30T05:55:47.406Z,97.67
2023-04-30T05:58:13.883Z,97.27
2023-04-30T06:00:40.524Z,96.10
2023-04-30T06:03:07.798Z,96.16
2023-04-30T06:05:34.372Z,96.12
2023-04-30T06:08:00.890Z,95.44
2023-04-30T06:10:27.522Z,96.69
2023-04-30T06:12:54.060Z,95.89
2023-04-30T06:15:20.568Z,96.40
2023-04-30T06:17:47.148Z,95.30
2023-04-30T06:20:14.819Z,93.08
2023-04-30T06:22:41.315Z,91.63
2023-04-30T06:25:08.305Z,93.16
2023-04-30T06:27:35.011Z,93.76
2023-04-30T06:30:01.487Z,93.16
2023-04-30T06:32:27.982Z,92.69
2023-04-30T06:34:55.826Z,93.50
2023-04-30T06:37:22.345Z,92.65
2023-04-30T06:39:49.667Z,93.36
2023-04-30T06:42:16.148Z,91.88
2023-04-30T06:44:42.807Z,90.33
2023-04-30T06:47:09.278Z,90.61
2023-04-30T06:49:35.732Z,89.97
2023-04-30T06:52:03.165Z,89.02
2023-04-30T06:54:29.633Z,88.17
2023-04-30T06:56:56.260Z,87.01
2023-04-30T06:59:22.803Z,85.40
2023-04-30T07:01:49.352Z,85.79
2023-04-30T07:04:16.244Z,83.80
2023-04-30T07:06:42.943Z,84.69
2023-04-30T07:09:09.685Z,84.48
2023-04-30T07:11:36.625Z,81.93
2023-04-30T07:14:03.186Z,81.68
2023-04-30T07:16:29.804Z,83.79
2023-04-30T07:18:56.401Z,87.17
2023-04-30T07:21:23.757Z,81.79
2023-04-30T07:23:51.630Z,80.45
2023-04-30T07:26:18.495Z,81.78
2023-04-30T07:28:48.083Z,80.77
2023-04-30T07:31:14.606Z,80.32
2023-04-30T07:33:41.327Z,79.46
2023-04-30T07:36:07.980Z,79.59
2023-04-30T07:38:34.467Z,76.27
2023-04-30T07:41:01.803Z,75.81
2023-04-30T07:43:29.965Z,76.36
2023-04-30T07:45:57.704Z,76.44
2023-04-30T07:48:24.274Z,77.66
2023-04-30T07:50:52.741Z,76.90
2023-04-30T07:53:19.760Z,76.30
2023-04-30T07:55:46.568Z,75.67
2023-04-30T07:58:13.037Z,76.95
2023-04-30T08:00:39.472Z,75.29
2023-04-30T08:03:06.013Z,75.24
2023-04-30T08:05:32.492Z,74.98
2023-04-30T08:07:58.942Z,74.14
2023-04-30T08:10:26.318Z,74.95
2023-04-30T08:12:53.218Z,75.23
2023-04-30T08:15:21.938Z,73.55
2023-04-30T08:17:51.751Z,73.78
2023-04-30T08:20:18.893Z,73.02
2023-04-30T08:22:46.601Z,71.69
2023-04-30T08:25:13.212Z,69.71
2023-04-30T08:27:39.749Z,68.33
2023-04-30T08:30:07.663Z,68.52
2023-04-30T08:32:37.845Z,66.94
2023-04-30T08:35:05.637Z,66.59
2023-04-30T08:37:32.387Z,67.49
2023-04-30T08:39:59.085Z,67.38
2023-04-30T08:42:30.684Z,67.92
2023-04-30T08:45:00.552Z,67.58
2023-04-30T08:47:28.352Z,68.95
2023-04-30T08:49:55.147Z,68.72
2023-04-30T08:52:22.284Z,69.32
2023-04-30T08:54:51.085Z,69.79
2023-04-30T08:57:18.523Z,69.20
2023-04-30T08:59:47.301Z,70.26
2023-04-30T09:02:14.362Z,71.14
2023-04-30T09:04:41.032Z,69.16
2023-04-30T09:07:09.560Z,68.19
2023-04-30T09:09:39.666Z,65.67
2023-04-30T09:12:20.619Z,62.81
2023-04-30T09:15:04.956Z,60.90
2023-04-30T09:17:32.772Z,60.62
2023-04-30T09:20:13.535Z,62.29
2023-04-30T09:22:41.922Z,61.39
2023-04-30T09:25:09.933Z,61.47
2023-04-30T09:27:36.488Z,59.95
2023-04-30T09:30:03.304Z,59.99
2023-04-30T09:32:29.805Z,59.03
2023-04-30T09:34:56.423Z,57.06
2023-04-30T09:37:38.228Z,56.31
2023-04-30T09:40:05.285Z,58.25
2023-04-30T09:42:31.904Z,58.46
2023-04-30T09:44:58.504Z,57.88
2023-04-30T09:47:30.004Z,56.17
2023-04-30T09:49:56.648Z,53.83
2023-04-30T09:52:23.307Z,51.56
2023-04-30T09:54:49.775Z,51.48
2023-04-30T09:57:16.690Z,51.94
2023-04-30T09:59:47.188Z,49.40
2023-04-30T10:02:20.090Z,47.58
2023-04-30T10:04:49.143Z,48.46
2023-04-30T10:07:19.438Z,49.75
2023-04-30T10:09:54.641Z,46.84
2023-04-30T10:12:27.151Z,49.31
2023-04-30T10:15:02.949Z,47.79
2023-04-30T10:17:33.804Z,48.37
2023-04-30T10:20:06.440Z,47.40
2023-04-30T10:22:35.446Z,47.81
2023-04-30T10:25:03.032Z,47.33
2023-04-30T10:27:30.530Z,47.33
2023-04-30T10:29:57.989Z,47.45
2023-04-30T10:32:32.568Z,43.37
2023-04-30T10:35:45.310Z,40.22
2023-04-30T10:38:33.005Z,37.52
2023-04-30T10:41:04.266Z,37.02
2023-04-30T10:43:31.491Z,35.14
2023-04-30T10:45:58.801Z,36.35
2023-04-30T10:48:27.056Z,35.71
2023-04-30T10:50:57.268Z,39.23
2023-04-30T10:53:26.332Z,38.99
2023-04-30T10:56:12.241Z,37.49
2023-04-30T10:58:41.860Z,36.71
2023-04-30T11:01:17.880Z,38.45
2023-04-30T11:04:08.504Z,35.93
2023-04-30T11:07:10.667Z,33.80
2023-04-30T11:09:43.679Z,35.22
2023-04-30T11:12:15.637Z,37.92
2023-04-30T11:14:44.641Z,39.42
2023-04-30T11:17:13.773Z,39.62
2023-04-30T11:19:48.163Z,40.33
2023-04-30T11:22:19.671Z,42.65
2023-04-30T11:24:52.983Z,43.73
2023-04-30T11:27:27.071Z,45.73
2023-04-30T11:29:55.285Z,45.25
2023-04-30T11:32:23.807Z,44.57
2023-04-30T11:34:50.775Z,46.54
2023-04-30T11:37:37.802Z,46.88
2023-04-30T11:40:07.549Z,48.75
2023-04-30T11:42:35.020Z,48.98
2023-04-30T11:45:09.990Z,50.00
2023-04-30T11:47:48.210Z,50.00
2023-04-30T11:50:19.630Z,52.67
2023-04-30T11:52:50.845Z,51.61
2023-04-30T11:55:19.190Z,52.52
2023-04-30T11:57:49.278Z,51.05
2023-04-30T12:00:18.365Z,52.07
2023-04-30T12:02:47.796Z,53.59
2023-04-30T12:05:19.007Z,51.68
2023-04-30T12:07:51.146Z,52.51
2023-04-30T12:10:21.024Z,52.80
2023-04-30T12:12:51.307Z,51.20
2023-04-30T12:15:23.245Z,51.10
2023-04-30T12:17:49.797Z,51.16
2023-04-30T12:20:16.507Z,51.79
2023-04-30T12:22:44.328Z,49.46
2023-04-30T12:25:19.470Z,50.39
2023-04-30T12:27:48.032Z,49.12
2023-04-30T12:30:15.149Z,50.91
2023-04-30T12:32:46.546Z,51.33
2023-04-30T12:35:19.730Z,51.40
2023-04-30T12:37:52.264Z,52.22
2023-04-30T12:40:20.600Z,51.51
2023-04-30T12:42:47.875Z,51.58
2023-04-30T12:45:45.167Z,52.43
2023-04-30T12:48:11.826Z,52.10
2023-04-30T12:50:39.321Z,53.07
2023-04-30T12:53:07.558Z,52.63
2023-04-30T12:55:35.275Z,53.08
2023-04-30T12:58:06.305Z,53.41
2023-04-30T13:00:45.091Z,53.91
2023-04-30T13:03:16.740Z,53.52
2023-04-30T13:05:48.421Z,53.53
2023-04-30T13:08:15.470Z,56.07
2023-04-30T13:10:42.302Z,54.71
2023-04-30T13:13:08.796Z,54.56
2023-04-30T13:15:35.340Z,57.35
2023-04-30T13:18:02.092Z,54.76
2023-04-30T13:20:28.549Z,54.34
2023-04-30T13:22:55.084Z,54.47
2023-04-30T13:25:22.250Z,54.24
2023-04-30T13:27:48.768Z,52.70
2023-04-30T13:30:15.288Z,52.84
2023-04-30T13:32:43.038Z,50.80
2023-04-30T13:35:10.240Z,49.15
2023-04-30T13:37:36.799Z,49.01
2023-04-30T13:40:04.133Z,50.78
2023-04-30T13:42:30.934Z,49.76
2023-04-30T13:44:57.737Z,50.03
2023-04-30T13:47:24.380Z,50.64
2023-04-30T13:49:51.060Z,48.96
2023-04-30T13:52:17.557Z,49.72
2023-04-30T13:54:44.097Z,49.87
2023-04-30T13:57:10.621Z,49.14
2023-04-30T13:59:37.096Z,49.24
2023-04-30T14:02:03.674Z,49.84
2023-04-30T14:04:31.337Z,51.46
2023-04-30T14:06:57.987Z,54.43
2023-04-30T14:09:24.562Z,53.36
2023-04-30T14:11:51.423Z,53.47
2023-04-30T14:14:18.003Z,51.87
2023-04-30T14:16:44.936Z,53.18
2023-04-30T14:19:11.671Z,53.62
2023-04-30T14:21:38.155Z,55.18
2023-04-30T14:24:05.012Z,54.03
2023-04-30T14:26:31.556Z,53.78
2023-04-30T14:28:58.178Z,55.62
2023-04-30T14:31:24.640Z,57.04
2023-04-30T14:33:51.136Z,57.55
2023-04-30T14:36:17.772Z,55.51
2023-04-30T14:38:44.243Z,57.19
2023-04-30T14:41:10.778Z,55.66
2023-04-30T14:43:37.270Z,56.42
2023-04-30T14:46:04.131Z,54.95
2023-04-30T14:48:30.632Z,55.08
2023-04-30T14:50:57.190Z,55.32
2023-04-30T14:53:23.682Z,55.23
2023-04-30T14:55:50.475Z,55.03
2023-04-30T14:58:16.914Z,55.80
2023-04-30T15:00:43.368Z,55.17
2023-04-30T15:03:09.909Z,56.12
2023-04-30T15:05:36.594Z,56.39
2023-04-30T15:08:03.282Z,55.61
2023-04-30T15:10:29.767Z,56.47
2023-04-30T15:12:56.238Z,57.36
2023-04-30T15:15:27.835Z,57.58
2023-04-30T15:17:56.441Z,58.06
2023-04-30T15:20:23.061Z,58.32
2023-04-30T15:22:54.847Z,57.15
2023-04-30T15:25:24.601Z,58.38
2023-04-30T15:27:54.166Z,59.30
2023-04-30T15:30:21.688Z,57.41
2023-04-30T15:32:50.086Z,59.60
2023-04-30T15:35:17.123Z,56.74
2023-04-30T15:37:44.802Z,56.95
2023-04-30T15:40:15.171Z,58.47
2023-04-30T15:42:42.013Z,59.98
2023-04-30T15:45:09.769Z,59.57
2023-04-30T15:47:38.769Z,62.89
2023-04-30T15:50:06.090Z,57.61
2023-04-30T15:52:32.585Z,57.15
2023-04-30T15:54:59.102Z,58.81
2023-04-30T15:57:25.730Z,58.69
2023-04-30T15:59:52.227Z,59.00
2023-04-30T16:02:18.864Z,58.13
2023-04-30T16:04:45.411Z,59.47
2023-04-30T16:07:12.065Z,63.98
2023-04-30T16:09:39.072Z,62.32
2023-04-30T16:12:05.801Z,63.25
2023-04-30T16:14:32.295Z,61.41
2023-04-30T16:16:58.792Z,60.65
2023-04-30T16:19:25.423Z,60.08
2023-04-30T16:21:51.915Z,60.31
2023-04-30T16:24:18.392Z,60.02
2023-04-30T16:26:44.869Z,60.09
2023-04-30T16:29:11.391Z,60.27
2023-04-30T16:31:38.193Z,59.09
2023-04-30T16:34:04.740Z,58.60
2023-04-30T16:36:31.189Z,60.03
2023-04-30T16:38:57.673Z,58.32
2023-04-30T16:41:24.605Z,58.09
2023-04-30T16:43:51.280Z,58.71
2023-04-30T16:46:18.820Z,59.01
2023-04-30T16:48:45.462Z,59.01
2023-04-30T16:51:11.952Z,58.99
2023-04-30T16:53:38.504Z,60.11
2023-04-30T16:56:05.362Z,59.31
2023-04-30T16:58:32.017Z,59.47
2023-04-30T17:00:59.142Z,59.54
2023-04-30T17:03:25.877Z,58.90
2023-04-30T17:05:53.423Z,60.22
2023-04-30T17:08:21.115Z,60.69
2023-04-30T17:10:47.696Z,59.91
2023-04-30T17:13:14.808Z,61.86
2023-04-30T17:15:41.387Z,60.25
2023-04-30T17:18:09.615Z,59.26
2023-04-30T17:20:36.461Z,60.03
2023-04-30T17:23:03.571Z,58.62
2023-04-30T17:25:31.806Z,58.13
2023-04-30T17:28:01.561Z,59.58
2023-04-30T17:30:28.960Z,58.84
2023-04-30T17:32:56.345Z,59.99
2023-04-30T17:35:22.979Z,58.61
2023-04-30T17:37:49.432Z,60.63
2023-04-30T17:40:16.045Z,59.72
2023-04-30T17:42:42.549Z,60.86
2023-04-30T17:45:09.400Z,61.59
2023-04-30T17:47:35.942Z,62.77
2023-04-30T17:50:04.871Z,61.42
2023-04-30T17:52:33.522Z,58.40
2023-04-30T17:55:00.040Z,58.83
2023-04-30T17:57:26.559Z,61.21
2023-04-30T17:59:53.110Z,61.71
2023-04-30T18:02:19.720Z,62.49
2023-04-30T18:04:46.269Z,61.71
2023-04-30T18:07:12.788Z,61.25
2023-04-30T18:09:39.220Z,60.08
2023-04-30T18:12:05.832Z,61.29
2023-04-30T18:14:32.590Z,61.58
2023-04-30T18:16:59.382Z,62.18
2023-04-30T18:19:25.943Z,62.46
2023-04-30T18:21:56.723Z,63.44
2023-04-30T18:24:27.816Z,63.20
2023-04-30T18:26:55.273Z,61.62
2023-04-30T18:29:21.890Z,60.46
2023-04-30T18:31:48.729Z,59.87
2023-04-30T18:34:15.796Z,59.55
2023-04-30T18:36:45.324Z,59.50
2023-04-30T18:39:12.414Z,59.82
2023-04-30T18:41:38.909Z,59.56
2023-04-30T18:44:05.825Z,60.42
2023-04-30T18:46:32.375Z,59.28
2023-04-30T18:48:58.864Z,60.08
2023-04-30T18:51:25.542Z,59.57
2023-04-30T18:53:52.254Z,59.90
2023-04-30T18:56:18.806Z,59.03
2023-04-30T18:58:46.748Z,57.93
2023-04-30T19:01:16.304Z,57.96
2023-04-30T19:03:42.957Z,59.43
2023-04-30T19:06:09.841Z,58.92
2023-04-30T19:08:36.816Z,58.49
2023-04-30T19:11:03.561Z,60.14
2023-04-30T19:13:30.134Z,60.16
2023-04-30T19:15:56.714Z,60.57
2023-04-30T19:18:24.557Z,60.02
2023-04-30T19:21:09.440Z,60.15
2023-04-30T19:23:36.006Z,60.67
2023-04-30T19:26:03.011Z,59.55
2023-04-30T19:28:29.488Z,60.67
2023-04-30T19:30:56.500Z,59.80
2023-04-30T19:33:24.641Z,60.19
2023-04-30T19:35:53.494Z,60.51
2023-04-30T19:38:23.635Z,59.08
2023-04-30T19:40:53.151Z,60.24
2023-04-30T19:43:21.015Z,61.75
2023-04-30T19:45:51.029Z,63.09
2023-04-30T19:48:17.694Z,63.09
2023-04-30T19:50:46.792Z,64.33
2023-04-30T19:53:17.249Z,64.26
2023-04-30T19:55:44.188Z,64.52
2023-04-30T19:58:10.714Z,64.84
2023-04-30T20:00:38.625Z,64.42
2023-04-30T20:03:05.490Z,65.67
2023-04-30T20:05:34.161Z,65.81
2023-04-30T20:08:04.575Z,66.22
2023-04-30T20:10:31.852Z,65.63
2023-04-30T20:12:58.391Z,64.77
2023-04-30T20:15:25.133Z,64.46
2023-04-30T20:17:52.944Z,64.13
2023-04-30T20:20:20.987Z,64.59
2023-04-30T20:22:50.908Z,66.61
2023-04-30T20:25:17.900Z,67.55
2023-04-30T20:27:44.579Z,68.30
2023-04-30T20:30:12.370Z,67.10
2023-04-30T20:32:39.902Z,66.10
2023-04-30T20:35:07.688Z,66.39
2023-04-30T20:37:35.391Z,67.40
2023-04-30T20:40:02.313Z,66.42
2023-04-30T20:42:29.046Z,65.59
2023-04-30T20:44:56.370Z,64.67
2023-04-30T20:47:23.868Z,66.40
2023-04-30T20:49:51.194Z,66.59
2023-04-30T20:52:18.706Z,67.30
2023-04-30T20:54:45.899Z,67.61
2023-04-30T20:57:12.844Z,69.40
2023-04-30T20:59:39.324Z,68.81
2023-04-30T21:02:05.855Z,69.32
2023-04-30T21:04:32.355Z,70.95
2023-04-30T21:06:58.854Z,70.91
2023-04-30T21:09:25.598Z,71.75
2023-04-30T21:11:52.329Z,72.58
2023-04-30T21:14:18.946Z,72.84
2023-04-30T21:16:45.526Z,73.59
2023-04-30T21:19:12.151Z,74.45
2023-04-30T21:21:38.664Z,75.11
2023-04-30T21:24:05.629Z,74.69
2023-04-30T21:26:32.240Z,73.37
2023-04-30T21:28:58.854Z,72.38
2023-04-30T21:31:25.808Z,72.25
2023-04-30T21:33:52.540Z,71.02
2023-04-30T21:36:20.296Z,71.13
2023-04-30T21:38:46.754Z,70.50
2023-04-30T21:41:14.465Z,70.85
2023-04-30T21:43:44.258Z,69.87
2023-04-30T21:46:11.100Z,70.92
2023-04-30T21:48:38.409Z,71.76
2023-04-30T21:51:15.350Z,71.35
2023-04-30T21:53:42.399Z,71.98
2023-04-30T21:56:10.917Z,72.52
2023-04-30T21:58:38.564Z,73.35
2023-04-30T22:01:05.531Z,73.70
2023-04-30T22:03:32.750Z,73.51
2023-04-30T22:05:59.607Z,74.10
2023-04-30T22:08:26.221Z,74.79
2023-04-30T22:11:00.518Z,75.24
2023-04-30T22:13:28.435Z,75.16
2023-04-30T22:15:55.486Z,75.52
2023-04-30T22:18:22.921Z,75.98
2023-04-30T22:20:50.996Z,75.82
2023-04-30T22:23:18.772Z,76.37
2023-04-30T22:25:45.258Z,77.71
2023-04-30T22:28:11.925Z,77.02
2023-04-30T22:30:39.604Z,77.25
2023-04-30T22:33:06.601Z,77.85
2023-04-30T22:35:36.450Z,77.68
2023-04-30T22:38:03.487Z,77.95
2023-04-30T22:40:32.064Z,79.15
2023-04-30T22:42:59.473Z,78.05
2023-04-30T22:45:26.942Z,76.77
2023-04-30T22:47:54.336Z,75.95
2023-04-30T22:50:21.056Z,76.48
2023-04-30T22:52:47.832Z,77.77
2023-04-30T22:55:14.547Z,77.76
2023-04-30T22:57:41.205Z,77.19
2023-04-30T23:00:09.652Z,76.69
2023-04-30T23:02:36.792Z,77.20
2023-04-30T23:05:04.035Z,77.82
2023-04-30T23:07:30.625Z,78.55
2023-04-30T23:09:57.458Z,78.57
2023-04-30T23:12:24.185Z,78.40
2023-04-30T23:14:51.012Z,77.42
2023-04-30T23:17:18.106Z,77.34
2023-04-30T23:19:44.706Z,77.56
2023-04-30T23:22:11.165Z,77.81
2023-04-30T23:24:38.616Z,78.49
2023-04-30T23:27:05.117Z,79.06
2023-04-30T23:29:32.244Z,79.91
2023-04-30T23:31:59.481Z,80.55
2023-04-30T23:34:26.140Z,81.60
2023-04-30T23:36:52.645Z,81.36
2023-04-30T23:39:19.243Z,80.89
2023-04-30T23:41:45.765Z,83.69
2023-04-30T23:44:13.435Z,84.51
2023-04-30T23:46:41.484Z,85.52
2023-04-30T23:49:09.959Z,85.73
2023-04-30T23:51:36.937Z,86.94
2023-04-30T23:54:04.512Z,87.89
2023-04-30T23:56:31.551Z,87.96
2023-04-30T23:58:58.085Z,89.00
